Time;durP1;ratioP1;P1;durP2;ratioP2;P2;SDS_P1;SDS_P2;PMS_P1;PMS_P2;Temp;Humidity;BMP_temperature;BMP_pressure;BME280_temperature;BME280_humidity;BME280_pressure;Samples;Min_cycle;Max_cycle;Signal;HPM_P1;HPM_P2
2022/08/19 00:01:11;;;;;;;11.03;9.30;;;26.70;47.80;;;;;;5051971;28;20640;-42
2022/08/19 00:03:37;;;;;;;11.70;8.20;;;26.70;47.90;;;;;;5051940;28;20649;-44
2022/08/19 00:06:03;;;;;;;11.10;9.57;;;26.60;47.90;;;;;;5051690;28;20470;-44
2022/08/19 00:08:29;;;;;;;8.90;8.00;;;26.60;48.00;;;;;;5051899;28;20173;-45
2022/08/19 00:10:54;;;;;;;10.23;8.60;;;26.60;48.00;;;;;;5051997;28;20200;-45
2022/08/19 00:13:20;;;;;;;12.90;9.70;;;26.60;48.10;;;;;;5051921;28;20407;-43
2022/08/19 00:15:46;;;;;;;11.53;9.00;;;26.60;48.10;;;;;;5051737;28;20283;-42
2022/08/19 00:18:12;;;;;;;12.13;9.70;;;26.60;48.10;;;;;;5051814;28;20192;-42
2022/08/19 00:20:40;;;;;;;12.30;9.20;;;26.60;48.10;;;;;;5051821;28;20193;-43
2022/08/19 00:23:06;;;;;;;14.37;8.30;;;26.50;47.50;;;;;;5051775;28;20209;-44
2022/08/19 00:25:33;;;;;;;10.27;8.77;;;26.60;48.20;;;;;;5051659;28;20448;-42
2022/08/19 00:27:59;;;;;;;11.83;10.30;;;26.50;48.20;;;;;;5051845;28;20482;-45
2022/08/19 00:30:27;;;;;;;12.37;9.40;;;26.50;48.40;;;;;;5051736;28;20506;-44
2022/08/19 00:32:55;;;;;;;10.90;9.40;;;26.50;48.50;;;;;;5051550;28;20431;-44
2022/08/19 00:35:21;;;;;;;11.37;10.17;;;26.50;48.70;;;;;;5051748;28;20426;-44
2022/08/19 00:37:48;;;;;;;11.13;9.90;;;26.40;48.70;;;;;;5051780;28;20442;-43
2022/08/19 00:40:15;;;;;;;9.27;7.83;;;26.40;48.80;;;;;;5051751;28;20436;-43
2022/08/19 00:42:42;;;;;;;10.70;8.67;;;26.40;48.80;;;;;;5051672;28;20457;-44
2022/08/19 00:45:14;;;;;;;13.90;10.40;;;26.40;48.80;;;;;;5051626;28;20459;-43
2022/08/19 00:47:39;;;;;;;10.80;9.70;;;26.40;49.00;;;;;;5051441;28;20398;-45
2022/08/19 00:50:07;;;;;;;12.83;10.40;;;26.40;49.10;;;;;;5051563;28;20427;-44
2022/08/19 00:52:37;;;;;;;13.70;10.30;;;26.40;49.30;;;;;;5051708;28;20416;-45
2022/08/19 00:55:08;;;;;;;10.90;9.07;;;26.40;49.30;;;;;;5051517;28;20507;-43
2022/08/19 00:57:39;;;;;;;11.83;10.63;;;26.30;49.30;;;;;;5051343;28;20859;-43
2022/08/19 01:00:11;;;;;;;12.70;9.37;;;26.40;49.30;;;;;;5051424;28;20447;-43
2022/08/19 01:02:37;;;;;;;11.20;9.10;;;26.40;49.30;;;;;;5052971;28;20756;-44
2022/08/19 01:05:11;;;;;;;13.50;9.67;;;26.30;49.30;;;;;;5055212;28;20462;-44
2022/08/19 01:07:39;;;;;;;12.90;10.70;;;26.30;49.50;;;;;;5055107;28;20426;-44
2022/08/19 01:10:09;;;;;;;12.50;10.70;;;26.30;49.60;;;;;;5055091;28;20424;-43
2022/08/19 01:12:36;;;;;;;12.60;9.40;;;26.30;49.70;;;;;;5055325;28;20420;-44
2022/08/19 01:15:03;;;;;;;15.83;11.43;;;26.30;49.90;;;;;;5055134;28;20415;-43
2022/08/19 01:17:29;;;;;;;12.20;9.90;;;26.30;49.90;;;;;;5054748;28;20418;-43
2022/08/19 01:19:55;;;;;;;11.97;9.67;;;26.30;49.90;;;;;;5054961;28;20428;-44
2022/08/19 01:22:24;;;;;;;10.67;9.10;;;26.30;49.90;;;;;;5055009;28;20418;-44
2022/08/19 01:24:51;;;;;;;15.90;12.27;;;26.30;49.90;;;;;;5054746;28;20407;-44
2022/08/19 01:27:17;;;;;;;11.00;9.30;;;26.30;50.20;;;;;;5054681;28;20414;-43
2022/08/19 01:29:44;;;;;;;14.57;9.90;;;26.30;50.10;;;;;;5055001;28;20447;-43
2022/08/19 01:32:14;;;;;;;13.43;11.00;;;26.30;50.00;;;;;;5054769;28;20498;-45
2022/08/19 01:34:40;;;;;;;12.93;11.03;;;26.30;50.10;;;;;;5054671;28;20431;-43
2022/08/19 01:37:10;;;;;;;13.13;9.87;;;26.30;50.10;;;;;;5054517;28;20461;-45
2022/08/19 01:39:38;;;;;;;14.47;10.53;;;26.30;50.00;;;;;;5054431;28;20467;-43
2022/08/19 01:42:04;;;;;;;13.10;10.23;;;26.30;50.60;;;;;;5054601;28;20986;-43
2022/08/19 01:44:30;;;;;;;12.40;10.73;;;26.30;49.90;;;;;;5054434;28;20446;-45
2022/08/19 01:46:56;;;;;;;19.83;11.03;;;26.30;49.90;;;;;;5054246;28;20528;-43
2022/08/19 01:49:25;;;;;;;11.20;10.00;;;26.30;50.00;;;;;;5054440;28;20569;-43
2022/08/19 01:51:51;;;;;;;14.13;10.83;;;26.30;50.00;;;;;;5054507;28;20177;-43
2022/08/19 01:54:19;;;;;;;16.60;11.00;;;26.30;50.00;;;;;;5054278;28;20911;-43
2022/08/19 01:56:45;;;;;;;12.93;11.33;;;26.40;50.20;;;;;;5054256;28;20767;-42
2022/08/19 01:59:16;;;;;;;12.90;10.43;;;26.30;50.10;;;;;;5054206;28;20426;-43
2022/08/19 02:01:42;;;;;;;14.20;10.97;;;26.30;50.40;;;;;;5054317;28;20164;-43
2022/08/19 02:04:08;;;;;;;12.97;10.27;;;26.20;50.40;;;;;;5054237;28;20477;-43
2022/08/19 02:06:34;;;;;;;11.83;10.27;;;26.20;50.50;;;;;;5053878;28;20459;-43
2022/08/19 02:09:00;;;;;;;11.23;10.13;;;26.30;50.40;;;;;;5054174;28;20648;-42
2022/08/19 02:11:33;;;;;;;13.53;11.60;;;26.30;50.40;;;;;;5054128;28;20407;-43
2022/08/19 02:14:01;;;;;;;13.20;11.03;;;26.30;50.40;;;;;;5052860;28;20411;-43
2022/08/19 02:16:28;;;;;;;12.27;10.07;;;26.30;50.30;;;;;;5053823;28;20439;-43
2022/08/19 02:18:54;;;;;;;11.30;9.00;;;26.40;50.30;;;;;;5053947;28;20416;-43
2022/08/19 02:21:22;;;;;;;12.23;10.93;;;26.30;50.30;;;;;;5053819;28;20423;-43
2022/08/19 02:23:50;;;;;;;14.43;10.50;;;26.20;50.60;;;;;;5053958;28;20420;-43
2022/08/19 02:26:17;;;;;;;12.50;10.17;;;26.20;50.80;;;;;;5053501;28;20853;-43
2022/08/19 02:28:43;;;;;;;16.00;11.97;;;26.20;51.00;;;;;;5053634;28;20408;-43
2022/08/19 02:31:17;;;;;;;14.37;11.33;;;26.20;51.00;;;;;;5053599;28;20848;-43
2022/08/19 02:33:43;;;;;;;14.60;10.97;;;26.20;51.00;;;;;;5053589;28;20411;-43
2022/08/19 02:36:10;;;;;;;12.33;11.03;;;26.20;50.90;;;;;;5053410;28;20438;-43
2022/08/19 02:38:36;;;;;;;11.63;10.43;;;26.20;51.10;;;;;;5053499;28;20399;-43
2022/08/19 02:41:17;;;;;;;15.67;11.77;;;26.20;51.00;;;;;;5053499;28;20482;-43
2022/08/19 02:43:43;;;;;;;9.77;8.77;;;26.20;50.90;;;;;;5053546;28;20444;-43
2022/08/19 02:46:36;;;;;;;12.10;8.87;;;26.20;50.80;;;;;;5052993;28;20465;-43
2022/08/19 02:49:06;;;;;;;12.37;10.63;;;26.20;50.90;;;;;;5050212;28;20656;-43
2022/08/19 02:51:35;;;;;;;14.03;11.37;;;26.20;50.90;;;;;;5053418;28;20469;-43
2022/08/19 02:54:03;;;;;;;12.17;10.43;;;26.20;50.90;;;;;;5053290;28;20407;-43
2022/08/19 02:56:30;;;;;;;12.90;11.60;;;26.20;50.90;;;;;;5053153;28;20417;-44
2022/08/19 02:58:58;;;;;;;11.77;9.83;;;26.20;51.20;;;;;;5052966;28;20408;-43
2022/08/19 03:01:32;;;;;;;12.17;10.97;;;26.20;51.00;;;;;;5053095;28;20471;-43
2022/08/19 03:04:00;;;;;;;13.13;11.00;;;26.20;50.90;;;;;;5053371;28;20503;-43
2022/08/19 03:06:27;;;;;;;11.63;10.43;;;26.30;50.90;;;;;;5052845;28;20458;-43
2022/08/19 03:08:53;;;;;;;13.70;11.27;;;26.30;50.80;;;;;;5053010;28;20412;-42
2022/08/19 03:11:29;;;;;;;13.47;11.17;;;26.30;50.90;;;;;;5052902;28;20501;-43
2022/08/19 03:13:55;;;;;;;12.83;10.47;;;26.30;50.80;;;;;;5053050;28;20510;-43
2022/08/19 03:16:23;;;;;;;12.87;11.33;;;26.30;50.90;;;;;;5052940;28;20458;-43
2022/08/19 03:18:50;;;;;;;14.93;11.93;;;26.30;50.80;;;;;;5052816;28;20503;-43
2022/08/19 03:21:23;;;;;;;14.03;12.53;;;26.30;50.90;;;;;;5052720;28;20481;-43
2022/08/19 03:23:50;;;;;;;12.10;10.70;;;26.30;50.70;;;;;;5052754;28;20412;-43
2022/08/19 03:26:16;;;;;;;17.80;12.90;;;26.30;50.90;;;;;;5052052;28;20505;-43
2022/08/19 03:28:44;;;;;;;15.10;11.23;;;26.30;50.80;;;;;;5052699;28;20436;-43
2022/08/19 03:31:13;;;;;;;13.50;10.83;;;26.30;50.90;;;;;;5052527;28;20843;-43
2022/08/19 03:33:40;;;;;;;11.93;10.47;;;26.30;50.90;;;;;;5052511;28;20487;-43
2022/08/19 03:36:10;;;;;;;13.50;9.20;;;26.30;50.70;;;;;;5052287;28;20423;-43
2022/08/19 03:38:43;;;;;;;15.63;11.67;;;26.30;50.80;;;;;;5052721;28;20440;-43
2022/08/19 03:41:12;;;;;;;11.87;10.57;;;26.30;50.70;;;;;;5052338;28;20431;-43
2022/08/19 03:43:40;;;;;;;16.13;12.83;;;26.30;50.80;;;;;;5052656;28;20416;-43
2022/08/19 03:46:11;;;;;;;17.97;11.90;;;26.30;50.80;;;;;;5052303;28;20483;-43
2022/08/19 03:48:39;;;;;;;13.80;12.00;;;26.30;50.80;;;;;;5052598;28;20438;-41
2022/08/19 03:51:07;;;;;;;18.80;11.90;;;26.30;50.70;;;;;;5052783;28;20435;-43
2022/08/19 03:53:34;;;;;;;13.80;12.27;;;26.30;50.80;;;;;;5052485;28;20431;-42
2022/08/19 03:56:01;;;;;;;15.17;12.10;;;26.30;50.70;;;;;;5052377;28;20408;-42
2022/08/19 03:58:29;;;;;;;11.60;10.43;;;26.30;50.70;;;;;;5052470;28;20419;-42
2022/08/19 04:00:56;;;;;;;13.60;11.27;;;26.30;50.80;;;;;;5051972;28;20459;-43
2022/08/19 04:03:24;;;;;;;12.97;11.67;;;26.30;50.90;;;;;;5052010;28;20403;-42
2022/08/19 04:05:50;;;;;;;15.00;11.23;;;26.30;50.80;;;;;;5051907;28;20522;-42
2022/08/19 04:08:18;;;;;;;13.53;12.13;;;26.30;50.80;;;;;;5052156;28;20844;-43
2022/08/19 04:10:44;;;;;;;13.20;11.80;;;26.30;50.80;;;;;;5052110;28;20428;-43
2022/08/19 04:13:10;;;;;;;13.00;11.03;;;26.30;50.60;;;;;;5052115;28;20899;-42
2022/08/19 04:15:41;;;;;;;11.60;10.40;;;26.30;50.60;;;;;;5051768;28;20419;-42
2022/08/19 04:18:11;;;;;;;13.10;10.80;;;26.40;50.60;;;;;;5052028;28;20174;-43
2022/08/19 04:20:41;;;;;;;16.30;12.00;;;26.40;50.40;;;;;;5052048;28;20485;-43
2022/08/19 04:23:07;;;;;;;14.73;11.73;;;26.30;50.50;;;;;;5052230;28;20420;-42
2022/08/19 04:25:41;;;;;;;12.07;10.87;;;26.30;50.60;;;;;;5051811;28;20947;-43
2022/08/19 04:28:09;;;;;;;15.50;11.20;;;26.30;50.60;;;;;;5051935;28;20470;-44
2022/08/19 04:30:40;;;;;;;13.30;11.53;;;26.30;50.70;;;;;;5052127;28;20501;-44
2022/08/19 04:33:06;;;;;;;13.80;11.03;;;26.30;50.60;;;;;;5034144;28;20788;-41
2022/08/19 04:35:41;;;;;;;13.47;11.60;;;26.30;50.60;;;;;;5051840;28;20419;-42
2022/08/19 04:38:07;;;;;;;15.07;12.10;;;26.40;50.90;;;;;;5054518;28;20751;-42
2022/08/19 04:43:18;;;;;;;15.40;12.40;;;26.30;50.70;;;;;;5056082;28;20430;-42
2022/08/19 04:45:45;;;;;;;14.03;11.53;;;26.30;50.90;;;;;;5055749;28;20443;-42
2022/08/19 04:48:12;;;;;;;12.70;11.33;;;26.30;50.90;;;;;;5055635;28;20173;-42
2022/08/19 04:50:41;;;;;;;14.73;12.17;;;26.30;50.90;;;;;;5055605;28;20440;-43
2022/08/19 04:53:07;;;;;;;15.10;12.70;;;26.30;50.90;;;;;;5055760;28;20419;-41
2022/08/19 04:55:34;;;;;;;16.20;11.90;;;26.30;50.90;;;;;;5037382;28;20489;-42
2022/08/19 04:58:00;;;;;;;14.23;10.60;;;26.30;50.90;;;;;;5055463;28;20416;-43
2022/08/19 05:00:26;;;;;;;15.40;11.50;;;26.30;50.90;;;;;;5055316;28;20823;-43
2022/08/19 05:02:52;;;;;;;14.17;11.20;;;26.30;51.00;;;;;;5055366;28;20411;-43
2022/08/19 05:05:17;;;;;;;13.47;11.17;;;26.30;50.90;;;;;;5055425;28;20196;-42
2022/08/19 05:07:43;;;;;;;12.60;10.77;;;26.30;50.90;;;;;;5055207;28;20165;-42
2022/08/19 05:10:09;;;;;;;14.40;11.33;;;26.20;51.00;;;;;;5055137;28;20197;-42
2022/08/19 05:12:35;;;;;;;15.43;12.00;;;26.20;51.10;;;;;;5055246;28;20193;-43
2022/08/19 05:15:04;;;;;;;13.70;12.30;;;26.20;51.00;;;;;;5055375;28;20489;-43
2022/08/19 05:17:29;;;;;;;14.20;11.27;;;26.20;51.00;;;;;;5054918;28;20644;-43
2022/08/19 05:22:40;;;;;;;14.43;11.00;;;26.20;51.00;;;;;;5055422;28;20272;-43
2022/08/19 05:25:13;;;;;;;15.17;11.13;;;26.10;51.20;;;;;;5054809;28;20500;-42
2022/08/19 05:27:39;;;;;;;13.20;11.40;;;26.20;51.20;;;;;;5054714;28;20411;-43
2022/08/19 05:30:06;;;;;;;12.50;11.03;;;26.20;51.20;;;;;;5054840;28;20541;-42
2022/08/19 05:32:31;;;;;;;14.83;12.60;;;26.20;51.20;;;;;;5054983;28;20404;-43
2022/08/19 05:34:57;;;;;;;14.43;11.00;;;26.20;51.00;;;;;;5054733;28;20400;-43
2022/08/19 05:37:26;;;;;;;14.00;10.47;;;26.20;51.00;;;;;;5036753;28;20173;-43
2022/08/19 05:39:52;;;;;;;15.47;11.57;;;26.20;51.00;;;;;;5054592;28;20204;-42
2022/08/19 05:42:19;;;;;;;16.53;12.00;;;26.20;51.10;;;;;;5070751;22;20404;-41
2022/08/19 05:44:46;;;;;;;11.57;10.00;;;26.20;51.10;;;;;;5035262;28;20449;-41
2022/08/19 05:47:14;;;;;;;17.77;11.80;;;26.10;51.30;;;;;;5052057;28;20942;-42
2022/08/19 05:49:41;;;;;;;12.33;10.20;;;26.10;51.20;;;;;;5054778;28;20408;-42
2022/08/19 05:52:10;;;;;;;13.27;10.23;;;26.10;51.30;;;;;;5055618;28;20415;-42
2022/08/19 05:54:40;;;;;;;15.53;11.63;;;26.10;51.40;;;;;;5055237;28;20439;-42
2022/08/19 05:57:06;;;;;;;16.53;11.40;;;26.10;51.30;;;;;;5055197;28;20411;-41
2022/08/19 05:59:34;;;;;;;15.80;11.90;;;26.10;51.40;;;;;;5055194;28;20814;-42
2022/08/19 06:02:00;;;;;;;14.63;12.47;;;26.00;51.50;;;;;;5054393;28;20408;-41
2022/08/19 06:04:26;;;;;;;14.43;11.37;;;26.00;51.40;;;;;;5054145;28;20463;-41
2022/08/19 06:06:53;;;;;;;10.83;9.73;;;26.00;51.50;;;;;;5054310;28;20486;-42
2022/08/19 06:09:20;;;;;;;12.23;10.30;;;26.00;51.60;;;;;;5054029;28;20408;-42
2022/08/19 06:11:53;;;;;;;12.57;9.50;;;25.90;51.20;;;;;;5054039;28;20426;-41
2022/08/19 06:14:22;;;;;;;11.87;9.33;;;25.90;51.00;;;;;;5054265;28;20455;-41
2022/08/19 06:16:52;;;;;;;10.80;8.40;;;25.90;51.20;;;;;;5053827;28;20419;-42
2022/08/19 06:19:19;;;;;;;8.43;7.60;;;25.90;51.10;;;;;;5054159;28;20911;-42
2022/08/19 06:21:47;;;;;;;9.50;7.93;;;25.90;51.10;;;;;;5054199;28;20419;-42
2022/08/19 06:24:15;;;;;;;10.00;7.83;;;25.90;51.00;;;;;;5054281;28;20454;-42
2022/08/19 06:26:44;;;;;;;10.30;8.07;;;25.90;51.10;;;;;;5053753;28;20455;-42
2022/08/19 06:29:12;;;;;;;8.33;7.43;;;25.90;50.90;;;;;;5055092;28;20448;-42
2022/08/19 06:31:46;;;;;;;9.77;8.10;;;25.90;50.80;;;;;;5054701;28;20400;-41
2022/08/19 06:34:13;;;;;;;10.30;7.73;;;26.00;51.30;;;;;;5037768;28;20432;-41
2022/08/19 06:36:43;;;;;;;9.07;7.60;;;26.00;51.40;;;;;;5055515;28;20859;-42
2022/08/19 06:39:15;;;;;;;10.80;8.33;;;26.00;51.30;;;;;;5055503;28;20412;-42
2022/08/19 06:41:43;;;;;;;8.50;6.57;;;26.00;51.60;;;;;;5053861;28;20507;-42
2022/08/19 06:44:10;;;;;;;8.37;7.47;;;25.90;51.00;;;;;;5035710;28;20462;-42
2022/08/19 06:46:37;;;;;;;9.57;7.70;;;25.90;51.00;;;;;;5055050;28;20950;-42
2022/08/19 06:49:04;;;;;;;8.77;7.80;;;25.90;51.20;;;;;;5054271;28;20414;-42
2022/08/19 06:51:32;;;;;;;10.80;7.50;;;25.90;51.80;;;;;;5053391;28;20408;-41
2022/08/19 06:53:58;;;;;;;8.60;7.10;;;26.00;51.70;;;;;;5053175;28;20834;-42
2022/08/19 06:56:33;;;;;;;11.80;9.13;;;25.90;51.30;;;;;;5053068;28;20403;-42
2022/08/19 06:59:22;;;;;;;12.80;8.60;;;26.00;52.00;;;;;;5053586;28;20811;-42
2022/08/19 07:01:53;;;;;;;14.27;8.83;;;25.90;51.70;;;;;;5052652;28;20444;-42
2022/08/19 07:04:23;;;;;;;11.17;8.80;;;25.90;51.80;;;;;;5052997;28;20431;-41
2022/08/19 07:06:51;;;;;;;12.37;9.87;;;25.90;51.90;;;;;;5052710;28;20463;-41
2022/08/19 07:09:18;;;;;;;13.23;9.80;;;25.90;52.00;;;;;;5052858;28;20411;-41
2022/08/19 07:11:46;;;;;;;11.50;9.10;;;25.90;52.40;;;;;;5052796;28;20408;-41
2022/08/19 07:14:14;;;;;;;12.43;9.93;;;25.90;52.10;;;;;;5052699;28;20435;-42
2022/08/19 07:16:40;;;;;;;10.90;9.77;;;25.90;52.40;;;;;;5052858;28;20415;-42
2022/08/19 07:19:06;;;;;;;15.47;10.77;;;25.90;52.40;;;;;;5052775;28;20482;-42
2022/08/19 07:21:32;;;;;;;12.00;9.30;;;25.90;52.40;;;;;;5035063;28;20408;-42
2022/08/19 07:23:59;;;;;;;14.43;11.13;;;25.90;52.50;;;;;;5052608;28;20535;-42
2022/08/19 07:26:28;;;;;;;14.57;11.70;;;26.00;53.20;;;;;;5052315;28;20284;-42
2022/08/19 07:28:55;;;;;;;12.70;10.20;;;25.90;52.70;;;;;;5052506;28;20411;-42
2022/08/19 07:31:23;;;;;;;14.93;10.87;;;26.00;53.40;;;;;;5052540;28;20438;-42
2022/08/19 07:33:51;;;;;;;15.97;10.57;;;25.90;53.00;;;;;;5052441;28;20511;-42
2022/08/19 07:36:21;;;;;;;14.40;12.00;;;25.90;53.20;;;;;;5052431;28;21001;-41
2022/08/19 07:38:48;;;;;;;14.37;10.60;;;25.90;53.60;;;;;;5052448;28;20499;-42
2022/08/19 07:41:21;;;;;;;16.60;10.20;;;25.80;53.40;;;;;;5052370;28;20423;-41
2022/08/19 07:43:49;;;;;;;16.30;10.30;;;25.80;53.60;;;;;;5052167;28;20451;-42
2022/08/19 07:46:16;;;;;;;15.13;10.90;;;25.70;53.80;;;;;;5051968;28;20546;-43
2022/08/19 07:48:46;;;;;;;16.33;11.63;;;25.60;54.00;;;;;;5052490;28;20403;-42
2022/08/19 07:51:15;;;;;;;17.20;10.63;;;25.60;54.30;;;;;;5052257;28;20392;-42
2022/08/19 07:53:41;;;;;;;13.43;10.03;;;25.60;54.30;;;;;;5052160;28;20420;-41
2022/08/19 07:56:07;;;;;;;16.07;12.50;;;25.60;54.70;;;;;;5034018;28;20431;-41
2022/08/19 07:58:37;;;;;;;15.60;12.07;;;25.60;54.70;;;;;;5034259;28;20776;-42
2022/08/19 08:01:06;;;;;;;14.30;9.90;;;25.60;54.70;;;;;;5052249;28;20404;-41
2022/08/19 08:09:12;;;;;;;12.17;9.70;;;25.70;54.70;;;;;;5052121;28;20406;-42
2022/08/19 08:11:40;;;;;;;16.50;11.93;;;25.60;54.90;;;;;;5052019;28;20407;-42
2022/08/19 08:14:06;;;;;;;13.63;10.63;;;25.60;54.90;;;;;;5051909;28;20439;-41
2022/08/19 08:16:38;;;;;;;13.77;12.00;;;25.60;54.90;;;;;;5051622;28;20408;-42
2022/08/19 08:19:05;;;;;;;14.70;11.60;;;25.50;54.90;;;;;;5051933;28;20404;-41
2022/08/19 08:21:32;;;;;;;12.00;10.60;;;25.50;55.20;;;;;;5033937;28;20793;-42
2022/08/19 08:23:58;;;;;;;14.20;10.20;;;25.60;55.00;;;;;;5051773;28;20431;-42
2022/08/19 08:26:24;;;;;;;13.13;11.03;;;25.60;55.10;;;;;;5051686;28;20456;-41
2022/08/19 08:28:54;;;;;;;13.50;10.60;;;25.60;55.20;;;;;;5051869;28;20403;-42
2022/08/19 08:31:20;;;;;;;10.77;9.53;;;25.60;55.30;;;;;;5051752;28;20411;-42
2022/08/19 08:33:46;;;;;;;11.33;9.40;;;25.60;55.20;;;;;;5051722;28;20420;-41
2022/08/19 08:36:13;;;;;;;13.30;11.50;;;25.60;55.20;;;;;;5051542;28;20408;-42
2022/08/19 08:38:40;;;;;;;11.00;9.57;;;25.60;55.10;;;;;;5051748;28;20503;-43
2022/08/19 08:41:34;;;;;;;12.40;10.57;;;25.70;55.10;;;;;;5051733;28;20453;-43
2022/08/19 08:44:04;;;;;;;14.37;10.60;;;25.80;55.10;;;;;;5051550;28;20455;-41
2022/08/19 08:46:40;;;;;;;12.43;10.07;;;25.80;55.20;;;;;;5051230;28;20462;-43
2022/08/19 08:49:25;;;;;;;12.90;9.63;;;25.80;55.00;;;;;;5051712;28;20387;-42
2022/08/19 08:51:56;;;;;;;13.10;9.07;;;25.80;54.90;;;;;;5051535;28;20415;-41
2022/08/19 08:54:26;;;;;;;10.00;8.03;;;25.80;54.80;;;;;;5033875;28;20788;-41
2022/08/19 08:56:53;;;;;;;11.80;10.60;;;25.80;54.90;;;;;;5051341;28;20513;-43
2022/08/19 08:59:32;;;;;;;11.77;9.47;;;25.80;54.70;;;;;;5051579;28;20415;-40
2022/08/19 09:01:58;;;;;;;11.73;9.23;;;25.90;54.80;;;;;;5033672;28;20498;-43
2022/08/19 09:04:24;;;;;;;11.27;9.30;;;25.90;54.70;;;;;;5051265;28;20426;-41
2022/08/19 09:07:22;;;;;;;13.90;10.47;;;25.90;54.70;;;;;;5051091;28;20455;-42
2022/08/19 09:09:57;;;;;;;11.90;9.33;;;26.00;55.00;;;;;;5051484;28;20402;-42
2022/08/19 09:12:39;;;;;;;10.67;8.50;;;26.00;54.80;;;;;;5051440;28;20402;-43
2022/08/19 09:15:08;;;;;;;12.50;9.83;;;26.10;54.80;;;;;;5051392;28;20391;-41
2022/08/19 09:17:35;;;;;;;11.63;9.90;;;26.10;54.60;;;;;;5051280;28;20922;-43
2022/08/19 09:20:08;;;;;;;12.70;10.23;;;26.20;54.50;;;;;;5054028;28;20403;-42
2022/08/19 09:22:38;;;;;;;10.90;9.53;;;26.20;54.40;;;;;;5052922;28;20928;-42
2022/08/19 09:25:07;;;;;;;13.13;10.17;;;26.20;54.30;;;;;;5054837;28;20398;-42
2022/08/19 09:27:35;;;;;;;26.43;11.27;;;26.20;54.10;;;;;;5054809;28;20396;-42
2022/08/19 09:30:01;;;;;;;12.60;9.97;;;26.30;54.30;;;;;;5054883;28;20408;-42
2022/08/19 09:32:27;;;;;;;11.57;10.07;;;26.30;54.30;;;;;;5054760;28;20976;-43
2022/08/19 09:34:57;;;;;;;12.37;10.90;;;26.40;54.30;;;;;;5054660;28;20403;-42
2022/08/19 09:37:25;;;;;;;12.50;11.20;;;26.50;54.00;;;;;;5054478;28;20395;-43
2022/08/19 09:39:51;;;;;;;12.77;9.77;;;26.50;53.70;;;;;;5054620;28;20400;-42
2022/08/19 09:42:17;;;;;;;11.93;10.63;;;26.60;53.80;;;;;;5054630;28;20935;-43
2022/08/19 09:44:43;;;;;;;14.87;10.03;;;26.60;53.50;;;;;;5054475;28;20408;-42
2022/08/19 09:47:11;;;;;;;11.73;10.20;;;26.60;53.10;;;;;;5054309;28;20193;-43
2022/08/19 09:49:38;;;;;;;14.77;8.97;;;26.60;53.00;;;;;;5054493;28;20395;-42
2022/08/19 09:52:05;;;;;;;11.90;10.03;;;26.70;53.00;;;;;;5054750;28;20819;-41
2022/08/19 09:54:31;;;;;;;13.27;11.20;;;26.70;53.10;;;;;;5054254;28;20938;-42
2022/08/19 09:57:00;;;;;;;12.70;10.20;;;26.80;53.00;;;;;;5054224;28;20409;-42
2022/08/19 09:59:26;;;;;;;14.33;10.10;;;26.80;52.60;;;;;;5054349;28;20161;-41
2022/08/19 10:01:52;;;;;;;11.10;9.57;;;26.80;52.30;;;;;;5054281;28;20412;-43
2022/08/19 10:04:19;;;;;;;10.77;9.63;;;26.70;52.40;;;;;;5054061;28;20792;-42
2022/08/19 10:06:47;;;;;;;14.03;9.23;;;26.70;52.40;;;;;;5053826;28;20842;-42
2022/08/19 10:09:15;;;;;;;11.50;9.67;;;26.80;52.20;;;;;;5054088;28;20408;-43
2022/08/19 10:11:43;;;;;;;10.70;9.53;;;26.70;52.10;;;;;;5054103;28;20477;-41
2022/08/19 10:14:10;;;;;;;12.90;9.50;;;26.80;52.20;;;;;;5038243;28;20473;-43
2022/08/19 10:16:37;;;;;;;9.60;8.40;;;26.80;52.30;;;;;;5056622;28;20411;-44
2022/08/19 10:19:03;;;;;;;9.70;6.80;;;26.80;51.90;;;;;;5058303;28;20972;-43
2022/08/19 10:21:31;;;;;;;10.00;7.53;;;26.80;52.20;;;;;;5056006;28;20451;-42
2022/08/19 10:24:01;;;;;;;8.70;7.67;;;26.90;52.20;;;;;;5054069;28;20787;-43
2022/08/19 10:26:29;;;;;;;9.40;7.70;;;27.00;52.80;;;;;;5053610;28;20455;-42
2022/08/19 10:28:57;;;;;;;10.77;7.20;;;27.00;52.30;;;;;;5053829;28;20467;-42
2022/08/19 10:31:25;;;;;;;8.47;6.80;;;27.10;52.20;;;;;;5053691;28;20783;-41
2022/08/19 10:33:58;;;;;;;7.80;6.63;;;27.10;52.00;;;;;;5053436;28;20442;-42
2022/08/19 10:36:34;;;;;;;7.60;6.87;;;27.10;51.30;;;;;;5034621;28;20393;-42
2022/08/19 10:39:06;;;;;;;9.03;7.57;;;27.10;51.70;;;;;;5053868;28;20395;-42
2022/08/19 10:41:35;;;;;;;8.17;6.70;;;27.20;51.70;;;;;;5053551;28;20431;-43
2022/08/19 10:44:04;;;;;;;8.20;6.57;;;27.30;51.90;;;;;;5053298;28;20815;-41
2022/08/19 10:46:32;;;;;;;7.97;7.17;;;27.40;51.50;;;;;;5052980;28;20847;-42
2022/08/19 10:48:59;;;;;;;8.23;7.17;;;27.50;51.30;;;;;;5053524;28;20413;-42
2022/08/19 10:54:10;;;;;;;10.23;7.90;;;27.80;50.50;;;;;;5053241;28;20419;-41
2022/08/19 10:56:51;;;;;;;9.03;7.57;;;27.90;50.80;;;;;;5052915;28;20404;-41
2022/08/19 10:59:22;;;;;;;7.13;6.20;;;28.00;50.70;;;;;;5053195;28;20380;-40
2022/08/19 11:01:49;;;;;;;7.80;6.70;;;28.10;50.20;;;;;;5053193;28;20388;-42
2022/08/19 11:04:17;;;;;;;7.53;6.83;;;28.10;49.50;;;;;;5053095;28;20494;-42
2022/08/19 11:06:47;;;;;;;7.10;6.40;;;28.00;49.10;;;;;;5052694;28;20989;-42
2022/08/19 11:09:16;;;;;;;9.17;7.37;;;28.10;49.30;;;;;;5053022;28;20467;-41
2022/08/19 11:11:43;;;;;;;6.80;5.83;;;28.10;49.50;;;;;;5052895;28;20909;-41
2022/08/19 11:14:14;;;;;;;9.87;8.27;;;28.10;49.10;;;;;;5052742;28;20419;-42
2022/08/19 11:16:42;;;;;;;9.07;6.60;;;28.10;49.30;;;;;;5052580;28;20899;-41
2022/08/19 11:19:09;;;;;;;11.93;7.40;;;28.10;49.50;;;;;;5034947;28;20419;-41
2022/08/19 11:21:39;;;;;;;7.57;6.60;;;28.00;49.50;;;;;;5052747;28;20411;-41
2022/08/19 11:24:08;;;;;;;10.90;9.17;;;28.00;49.50;;;;;;5052629;28;20503;-42
2022/08/19 11:26:35;;;;;;;8.70;7.60;;;28.00;49.30;;;;;;5052434;28;20440;-42
2022/08/19 11:29:02;;;;;;;12.00;7.50;;;28.00;49.30;;;;;;5052603;28;20396;-43
2022/08/19 11:31:31;;;;;;;8.67;7.77;;;27.90;49.00;;;;;;5052464;28;20414;-41
2022/08/19 11:33:59;;;;;;;11.30;8.93;;;27.80;49.00;;;;;;5052484;28;20425;-42
2022/08/19 11:36:26;;;;;;;10.87;9.33;;;27.80;49.20;;;;;;5052464;28;20845;-42
2022/08/19 11:38:52;;;;;;;12.27;9.70;;;27.90;49.10;;;;;;5052588;28;20506;-42
2022/08/19 11:41:20;;;;;;;10.60;8.20;;;27.90;49.00;;;;;;5052463;28;20400;-43
2022/08/19 11:43:46;;;;;;;10.23;7.90;;;27.90;49.10;;;;;;5052311;28;20447;-42
2022/08/19 11:46:14;;;;;;;11.07;8.27;;;27.90;48.80;;;;;;5051724;28;20477;-41
2022/08/19 11:48:40;;;;;;;9.73;8.30;;;27.80;48.90;;;;;;5052209;28;20400;-42
2022/08/19 11:51:11;;;;;;;11.43;9.27;;;27.80;48.80;;;;;;5052259;28;20481;-43
2022/08/19 11:53:38;;;;;;;10.23;8.10;;;27.90;48.80;;;;;;5052174;28;20431;-42
2022/08/19 11:56:08;;;;;;;11.93;8.80;;;28.00;49.50;;;;;;5052007;28;20925;-43
2022/08/19 11:58:34;;;;;;;11.97;9.70;;;28.00;49.40;;;;;;5052173;28;20974;-42
2022/08/19 12:01:00;;;;;;;13.43;7.63;;;28.10;48.80;;;;;;5052120;28;20436;-42
2022/08/19 12:03:26;;;;;;;12.67;9.40;;;28.00;48.60;;;;;;5051875;28;20459;-41
2022/08/19 12:05:52;;;;;;;15.20;11.57;;;28.00;48.50;;;;;;5052019;28;20192;-42
2022/08/19 12:08:18;;;;;;;11.80;10.47;;;27.90;48.20;;;;;;5052074;28;20174;-43
2022/08/19 12:10:45;;;;;;;11.87;9.90;;;27.80;48.30;;;;;;5051946;28;20169;-42
2022/08/19 12:13:13;;;;;;;13.60;11.20;;;27.80;48.60;;;;;;5052022;28;20424;-43
2022/08/19 12:15:40;;;;;;;16.27;11.50;;;27.70;48.70;;;;;;5051721;28;20508;-42
2022/08/19 12:18:08;;;;;;;13.20;10.90;;;27.70;48.80;;;;;;5051773;28;20408;-42
2022/08/19 12:20:39;;;;;;;16.13;11.80;;;27.70;49.10;;;;;;5052158;28;20407;-42
2022/08/19 12:23:06;;;;;;;15.23;12.23;;;27.70;49.10;;;;;;5051753;28;20428;-42
2022/08/19 12:25:32;;;;;;;14.30;11.20;;;27.70;49.20;;;;;;5051685;28;20455;-42
2022/08/19 12:27:58;;;;;;;18.93;11.80;;;27.70;49.10;;;;;;5051778;28;20918;-42
2022/08/19 12:30:25;;;;;;;15.87;11.57;;;27.70;49.10;;;;;;5051685;28;20412;-42
2022/08/19 12:32:51;;;;;;;16.27;11.27;;;27.70;49.10;;;;;;5051603;28;20423;-42
2022/08/19 12:35:19;;;;;;;15.60;11.40;;;27.80;49.20;;;;;;5051969;28;20410;-41
2022/08/19 12:37:46;;;;;;;13.27;10.27;;;27.80;49.30;;;;;;5052372;28;20419;-41
2022/08/19 12:40:14;;;;;;;14.40;10.53;;;27.80;49.00;;;;;;5051718;28;20756;-42
2022/08/19 12:42:43;;;;;;;16.43;11.57;;;27.80;49.10;;;;;;5051669;28;20435;-41
2022/08/19 12:45:10;;;;;;;16.53;12.80;;;27.80;48.90;;;;;;5051424;28;20408;-42
2022/08/19 12:47:37;;;;;;;16.60;12.43;;;27.80;48.90;;;;;;5063486;22;20479;-42
2022/08/19 12:50:08;;;;;;;15.13;11.87;;;27.70;48.60;;;;;;5043289;28;20957;-43
2022/08/19 12:52:40;;;;;;;15.80;12.00;;;27.70;48.70;;;;;;5051642;28;20415;-43